sensor_id;sensor_type;location;lat;lon;timestamp;pressure;altitude;pressure_sealevel;temperature;humidity
29121;BME280;16191;49.548;8.658;2023-01-25T00:00:00;102216.97;;;1.37;100.00
29121;BME280;16191;49.548;8.658;2023-01-25T00:02:30;102214.56;;;1.44;100.00
29121;BME280;16191;49.548;8.658;2023-01-25T00:04:57;102215.41;;;1.43;100.00
29121;BME280;16191;49.548;8.658;2023-01-25T00:07:24;102218.66;;;1.37;100.00
29121;BME280;16191;49.548;8.658;2023-01-25T00:09:50;102207.59;;;1.40;100.00
29121;BME280;16191;49.548;8.658;2023-01-25T00:12:17;102202.41;;;1.38;100.00
29121;BME280;16191;49.548;8.658;2023-01-25T00:14:44;102203.97;;;1.33;100.00
29121;BME280;16191;49.548;8.658;2023-01-25T00:17:11;102206.50;;;1.31;100.00
29121;BME280;16191;49.548;8.658;2023-01-25T00:19:37;102202.19;;;1.30;100.00
29121;BME280;16191;49.548;8.658;2023-01-25T00:22:04;102203.19;;;1.35;100.00
29121;BME280;16191;49.548;8.658;2023-01-25T00:24:31;102199.78;;;1.36;100.00
29121;BME280;16191;49.548;8.658;2023-01-25T00:26:57;102185.06;;;1.31;100.00
29121;BME280;16191;49.548;8.658;2023-01-25T00:29:24;102193.72;;;1.34;100.00
29121;BME280;16191;49.548;8.658;2023-01-25T00:35:56;102185.19;;;1.35;100.00
29121;BME280;16191;49.548;8.658;2023-01-25T00:38:43;102198.88;;;1.34;100.00
29121;BME280;16191;49.548;8.658;2023-01-25T00:41:10;102200.78;;;1.42;100.00
29121;BME280;16191;49.548;8.658;2023-01-25T00:43:38;102198.13;;;1.38;100.00
29121;BME280;16191;49.548;8.658;2023-01-25T00:46:05;102193.16;;;1.45;100.00
29121;BME280;16191;49.548;8.658;2023-01-25T00:48:32;102195.78;;;1.46;100.00
29121;BME280;16191;49.548;8.658;2023-01-25T00:51:02;102191.25;;;1.37;100.00
29121;BME280;16191;49.548;8.658;2023-01-25T00:53:49;102178.44;;;1.39;100.00
29121;BME280;16191;49.548;8.658;2023-01-25T00:56:16;102176.84;;;1.44;100.00
29121;BME280;16191;49.548;8.658;2023-01-25T00:58:42;102182.13;;;1.49;100.00
29121;BME280;16191;49.548;8.658;2023-01-25T01:01:10;102169.19;;;1.46;100.00
29121;BME280;16191;49.548;8.658;2023-01-25T01:03:37;102179.44;;;1.44;100.00
29121;BME280;16191;49.548;8.658;2023-01-25T01:09:29;102174.25;;;1.43;100.00
29121;BME280;16191;49.548;8.658;2023-01-25T01:12:16;102177.66;;;1.42;100.00
29121;BME280;16191;49.548;8.658;2023-01-25T01:22:52;102166.34;;;1.36;100.00
29121;BME280;16191;49.548;8.658;2023-01-25T01:25:21;102175.75;;;1.36;100.00
29121;BME280;16191;49.548;8.658;2023-01-25T01:27:48;102175.81;;;1.37;100.00
29121;BME280;16191;49.548;8.658;2023-01-25T01:30:15;102179.44;;;1.44;100.00
29121;BME280;16191;49.548;8.658;2023-01-25T01:32:42;102182.78;;;1.42;100.00
29121;BME280;16191;49.548;8.658;2023-01-25T01:35:09;102173.19;;;1.36;100.00
29121;BME280;16191;49.548;8.658;2023-01-25T01:37:35;102180.88;;;1.34;100.00
29121;BME280;16191;49.548;8.658;2023-01-25T01:40:02;102174.84;;;1.34;100.00
29121;BME280;16191;49.548;8.658;2023-01-25T01:42:28;102173.88;;;1.30;100.00
29121;BME280;16191;49.548;8.658;2023-01-25T01:44:56;102164.53;;;1.32;100.00
29121;BME280;16191;49.548;8.658;2023-01-25T01:47:28;102172.28;;;1.34;100.00
29121;BME280;16191;49.548;8.658;2023-01-25T01:50:04;102174.25;;;1.43;100.00
29121;BME280;16191;49.548;8.658;2023-01-25T01:52:35;102172.38;;;1.37;100.00
29121;BME280;16191;49.548;8.658;2023-01-25T01:55:21;102168.97;;;1.38;100.00
29121;BME280;16191;49.548;8.658;2023-01-25T01:57:56;102168.94;;;1.36;100.00
29121;BME280;16191;49.548;8.658;2023-01-25T02:00:26;102167.22;;;1.37;100.00
29121;BME280;16191;49.548;8.658;2023-01-25T02:02:56;102175.81;;;1.37;100.00
29121;BME280;16191;49.548;8.658;2023-01-25T02:08:15;102165.25;;;1.27;100.00
29121;BME280;16191;49.548;8.658;2023-01-25T02:10:43;102161.84;;;1.28;100.00
29121;BME280;16191;49.548;8.658;2023-01-25T02:13:10;102158.34;;;1.26;100.00
29121;BME280;16191;49.548;8.658;2023-01-25T02:15:48;102156.66;;;1.26;100.00
29121;BME280;16191;49.548;8.658;2023-01-25T02:18:17;102149.91;;;1.30;100.00
29121;BME280;16191;49.548;8.658;2023-01-25T02:20:46;102155.22;;;1.37;100.00
29121;BME280;16191;49.548;8.658;2023-01-25T02:25:46;102154.13;;;1.28;100.00
29121;BME280;16191;49.548;8.658;2023-01-25T02:28:21;102145.53;;;1.27;100.00
29121;BME280;16191;49.548;8.658;2023-01-25T02:30:49;102137.81;;;1.27;100.00
29121;BME280;16191;49.548;8.658;2023-01-25T02:33:16;102145.50;;;1.26;100.00
29121;BME280;16191;49.548;8.658;2023-01-25T02:35:46;102148.94;;;1.26;100.00
29121;BME280;16191;49.548;8.658;2023-01-25T02:38:16;102147.19;;;1.25;100.00
29121;BME280;16191;49.548;8.658;2023-01-25T02:43:35;102143.81;;;1.26;100.00
29121;BME280;16191;49.548;8.658;2023-01-25T02:46:09;102149.81;;;1.27;100.00
29121;BME280;16191;49.548;8.658;2023-01-25T02:48:42;102141.31;;;1.29;100.00
29121;BME280;16191;49.548;8.658;2023-01-25T02:51:10;102143.75;;;1.25;100.00
29121;BME280;16191;49.548;8.658;2023-01-25T02:53:38;102136.88;;;1.24;100.00
29121;BME280;16191;49.548;8.658;2023-01-25T02:56:05;102138.53;;;1.22;100.00
29121;BME280;16191;49.548;8.658;2023-01-25T02:58:32;102133.25;;;1.17;100.00
29121;BME280;16191;49.548;8.658;2023-01-25T03:00:59;102136.03;;;1.25;100.00
29121;BME280;16191;49.548;8.658;2023-01-25T03:03:26;102142.88;;;1.24;100.00
29121;BME280;16191;49.548;8.658;2023-01-25T03:05:52;102136.78;;;1.21;100.00
29121;BME280;16191;49.548;8.658;2023-01-25T03:08:19;102138.47;;;1.20;100.00
29121;BME280;16191;49.548;8.658;2023-01-25T03:10:49;102135.94;;;1.22;100.00
29121;BME280;16191;49.548;8.658;2023-01-25T03:13:16;102133.56;;;1.28;100.00
29121;BME280;16191;49.548;8.658;2023-01-25T03:15:42;102136.03;;;1.25;100.00
29121;BME280;16191;49.548;8.658;2023-01-25T03:18:10;102130.91;;;1.25;100.00
29121;BME280;16191;49.548;8.658;2023-01-25T03:20:37;102132.47;;;1.20;100.00
29121;BME280;16191;49.548;8.658;2023-01-25T03:23:03;102120.75;;;1.29;100.00
29121;BME280;16191;49.548;8.658;2023-01-25T03:25:30;102121.41;;;1.22;100.00
29121;BME280;16191;49.548;8.658;2023-01-25T03:28:06;102120.69;;;1.28;100.00
29121;BME280;16191;49.548;8.658;2023-01-25T03:30:33;102125.72;;;1.23;100.00
29121;BME280;16191;49.548;8.658;2023-01-25T03:33:00;102130.22;;;1.32;100.00
29121;BME280;16191;49.548;8.658;2023-01-25T03:35:27;102123.28;;;1.28;100.00
29121;BME280;16191;49.548;8.658;2023-01-25T03:37:54;102123.06;;;1.20;100.00
29121;BME280;16191;49.548;8.658;2023-01-25T03:40:21;102125.72;;;1.23;100.00
29121;BME280;16191;49.548;8.658;2023-01-25T03:42:48;102124.84;;;1.23;100.00
29121;BME280;16191;49.548;8.658;2023-01-25T03:45:15;102127.50;;;1.26;100.00
29121;BME280;16191;49.548;8.658;2023-01-25T03:47:42;102128.09;;;1.17;100.00
29121;BME280;16191;49.548;8.658;2023-01-25T03:50:09;102119.53;;;1.17;100.00
29121;BME280;16191;49.548;8.658;2023-01-25T03:52:37;102123.88;;;1.19;100.00
29121;BME280;16191;49.548;8.658;2023-01-25T03:55:07;102120.59;;;1.25;100.00
29121;BME280;16191;49.548;8.658;2023-01-25T03:57:38;102122.31;;;1.24;100.00
29121;BME280;16191;49.548;8.658;2023-01-25T04:00:06;102122.91;;;1.16;100.00
29121;BME280;16191;49.548;8.658;2023-01-25T04:02:40;102121.47;;;1.25;100.00
29121;BME280;16191;49.548;8.658;2023-01-25T04:05:11;102119.56;;;1.18;100.00
29121;BME280;16191;49.548;8.658;2023-01-25T04:07:38;102122.13;;;1.18;100.00
29121;BME280;16191;49.548;8.658;2023-01-25T04:10:07;102119.34;;;1.11;100.00
29121;BME280;16191;49.548;8.658;2023-01-25T04:12:37;102128.94;;;1.16;100.00
29121;BME280;16191;49.548;8.658;2023-01-25T04:15:05;102118.88;;;1.24;100.00
29121;BME280;16191;49.548;8.658;2023-01-25T04:17:32;102123.75;;;1.15;100.00
29121;BME280;16191;49.548;8.658;2023-01-25T04:20:05;102111.75;;;1.15;100.00
29121;BME280;16191;49.548;8.658;2023-01-25T04:22:37;102109.28;;;1.18;100.00
29121;BME280;16191;49.548;8.658;2023-01-25T04:25:04;102115.91;;;1.10;100.00
29121;BME280;16191;49.548;8.658;2023-01-25T04:27:32;102117.72;;;1.14;100.00
29121;BME280;16191;49.548;8.658;2023-01-25T04:30:07;102119.28;;;1.08;100.00
29121;BME280;16191;49.548;8.658;2023-01-25T04:32:36;102114.97;;;1.07;100.00
29121;BME280;16191;49.548;8.658;2023-01-25T04:35:13;102111.41;;;1.01;100.00
29121;BME280;16191;49.548;8.658;2023-01-25T04:37:39;102108.38;;;1.16;100.00
29121;BME280;16191;49.548;8.658;2023-01-25T04:40:07;102108.91;;;1.05;100.00
29121;BME280;16191;49.548;8.658;2023-01-25T04:42:40;102109.00;;;1.09;100.00
29121;BME280;16191;49.548;8.658;2023-01-25T04:45:07;102109.78;;;1.05;100.00
29121;BME280;16191;49.548;8.658;2023-01-25T04:47:35;102112.63;;;1.16;100.00
29121;BME280;16191;49.548;8.658;2023-01-25T04:50:03;102113.28;;;1.07;100.00
29121;BME280;16191;49.548;8.658;2023-01-25T04:52:32;102108.09;;;1.06;100.00
29121;BME280;16191;49.548;8.658;2023-01-25T04:54:59;102103.88;;;1.08;100.00
29121;BME280;16191;49.548;8.658;2023-01-25T04:57:28;102109.69;;;1.02;100.00
29121;BME280;16191;49.548;8.658;2023-01-25T04:59:55;102108.22;;;1.12;100.00
29121;BME280;16191;49.548;8.658;2023-01-25T05:02:22;102103.88;;;1.08;100.00
29121;BME280;16191;49.548;8.658;2023-01-25T05:04:49;102106.44;;;1.09;100.00
29121;BME280;16191;49.548;8.658;2023-01-25T05:07:18;102098.63;;;1.05;100.00
29121;BME280;16191;49.548;8.658;2023-01-25T05:09:45;102107.44;;;1.14;100.00
29121;BME280;16191;49.548;8.658;2023-01-25T05:12:12;102098.91;;;1.15;100.00
29121;BME280;16191;49.548;8.658;2023-01-25T05:14:59;102095.72;;;1.24;100.00
29121;BME280;16191;49.548;8.658;2023-01-25T05:17:26;102092.09;;;1.17;100.00
29121;BME280;16191;49.548;8.658;2023-01-25T05:19:53;102087.84;;;1.18;100.00
29121;BME280;16191;49.548;8.658;2023-01-25T05:22:22;102090.00;;;1.02;100.00
29121;BME280;16191;49.548;8.658;2023-01-25T05:24:51;102091.75;;;1.03;100.00
29121;BME280;16191;49.548;8.658;2023-01-25T05:27:20;102089.19;;;1.03;100.00
29121;BME280;16191;49.548;8.658;2023-01-25T05:29:53;102079.84;;;1.07;100.00
29121;BME280;16191;49.548;8.658;2023-01-25T05:32:25;102073.28;;;1.18;100.00
29121;BME280;16191;49.548;8.658;2023-01-25T05:34:52;102067.09;;;1.12;100.00
29121;BME280;16191;49.548;8.658;2023-01-25T05:37:20;102059.44;;;1.13;100.00
29121;BME280;16191;49.548;8.658;2023-01-25T05:39:53;102057.81;;;1.17;100.00
29121;BME280;16191;49.548;8.658;2023-01-25T05:42:20;102055.00;;;1.08;100.00
29121;BME280;16191;49.548;8.658;2023-01-25T05:44:47;102049.78;;;1.05;100.00
29121;BME280;16191;49.548;8.658;2023-01-25T05:47:16;102048.03;;;1.03;100.00
29121;BME280;16191;49.548;8.658;2023-01-25T05:49:43;102048.00;;;1.02;100.00
29121;BME280;16191;49.548;8.658;2023-01-25T05:52:18;102049.84;;;1.06;100.00
29121;BME280;16191;49.548;8.658;2023-01-25T05:54:44;102058.84;;;1.23;100.00
29121;BME280;16191;49.548;8.658;2023-01-25T05:57:14;102053.53;;;1.17;100.00
29121;BME280;16191;49.548;8.658;2023-01-25T05:59:41;102055.09;;;1.12;100.00
29121;BME280;16191;49.548;8.658;2023-01-25T06:02:10;102047.31;;;1.08;100.00
29121;BME280;16191;49.548;8.658;2023-01-25T06:04:38;102042.47;;;1.20;100.00
29121;BME280;16191;49.548;8.658;2023-01-25T06:07:05;102047.63;;;1.20;100.00
29121;BME280;16191;49.548;8.658;2023-01-25T06:09:34;102050.84;;;1.13;100.00
29121;BME280;16191;49.548;8.658;2023-01-25T06:12:00;102039.91;;;1.20;100.00
29121;BME280;16191;49.548;8.658;2023-01-25T06:14:29;102041.44;;;1.13;100.00
29121;BME280;16191;49.548;8.658;2023-01-25T06:16:56;102047.63;;;1.20;100.00
29121;BME280;16191;49.548;8.658;2023-01-25T06:19:25;102041.50;;;1.16;100.00
29121;BME280;16191;49.548;8.658;2023-01-25T06:22:15;102047.66;;;1.21;100.00
29121;BME280;16191;49.548;8.658;2023-01-25T06:24:41;102053.75;;;1.25;100.00
29121;BME280;16191;49.548;8.658;2023-01-25T06:27:08;102058.69;;;1.17;100.00
29121;BME280;16191;49.548;8.658;2023-01-25T06:29:36;102060.69;;;1.27;100.00
29121;BME280;16191;49.548;8.658;2023-01-25T06:32:03;102060.78;;;1.32;100.00
29121;BME280;16191;49.548;8.658;2023-01-25T06:34:29;102059.63;;;1.21;100.00
29121;BME280;16191;49.548;8.658;2023-01-25T06:36:56;102063.09;;;1.21;100.00
29121;BME280;16191;49.548;8.658;2023-01-25T06:39:23;102061.47;;;1.25;100.00
29121;BME280;16191;49.548;8.658;2023-01-25T06:41:50;102054.56;;;1.24;100.00
29121;BME280;16191;49.548;8.658;2023-01-25T06:44:16;102055.66;;;1.33;100.00
29121;BME280;16191;49.548;8.658;2023-01-25T06:46:43;102063.22;;;1.26;100.00
29121;BME280;16191;49.548;8.658;2023-01-25T06:49:11;102064.66;;;1.16;100.00
29121;BME280;16191;49.548;8.658;2023-01-25T06:51:37;102062.38;;;1.27;100.00
29121;BME280;16191;49.548;8.658;2023-01-25T06:54:04;102057.97;;;1.23;100.00
29121;BME280;16191;49.548;8.658;2023-01-25T06:56:31;102056.28;;;1.23;100.00
29121;BME280;16191;49.548;8.658;2023-01-25T06:58:58;102048.47;;;1.20;100.00
29121;BME280;16191;49.548;8.658;2023-01-25T07:01:24;102047.88;;;1.29;100.00
29121;BME280;16191;49.548;8.658;2023-01-25T07:03:57;102046.34;;;1.37;100.00
29121;BME280;16191;49.548;8.658;2023-01-25T07:06:27;102046.66;;;1.16;100.00
29121;BME280;16191;49.548;8.658;2023-01-25T07:09:01;102044.28;;;1.24;100.00
29121;BME280;16191;49.548;8.658;2023-01-25T07:11:27;102050.25;;;1.23;100.00
29121;BME280;16191;49.548;8.658;2023-01-25T07:14:13;102045.81;;;1.17;100.00
29121;BME280;16191;49.548;8.658;2023-01-25T07:17:17;102040.97;;;1.28;100.00
29121;BME280;16191;49.548;8.658;2023-01-25T07:20:39;102042.72;;;1.30;100.00
29121;BME280;16191;49.548;8.658;2023-01-25T07:24:03;102051.31;;;1.29;100.00
29121;BME280;16191;49.548;8.658;2023-01-25T07:27:24;102043.56;;;1.28;100.00
29121;BME280;16191;49.548;8.658;2023-01-25T07:30:46;102047.03;;;1.31;100.00
29121;BME280;16191;49.548;8.658;2023-01-25T07:34:10;102044.56;;;1.34;100.00
29121;BME280;16191;49.548;8.658;2023-01-25T07:37:32;102041.75;;;1.25;100.00
29121;BME280;16191;49.548;8.658;2023-01-25T07:40:54;102043.59;;;1.29;100.00
29121;BME280;16191;49.548;8.658;2023-01-25T07:44:16;102046.03;;;1.25;100.00
29121;BME280;16191;49.548;8.658;2023-01-25T07:47:38;102044.25;;;1.22;100.00
29121;BME280;16191;49.548;8.658;2023-01-25T07:51:02;102044.47;;;1.31;100.00
29121;BME280;16191;49.548;8.658;2023-01-25T07:54:24;102055.09;;;1.44;100.00
29121;BME280;16191;49.548;8.658;2023-01-25T08:06:58;102041.22;;;1.38;100.00
29121;BME280;16191;49.548;8.658;2023-01-25T08:09:45;102048.16;;;1.41;100.00
29121;BME280;16191;49.548;8.658;2023-01-25T08:12:31;102055.03;;;1.42;100.00
29121;BME280;16191;49.548;8.658;2023-01-25T08:15:19;102046.47;;;1.42;100.00
29121;BME280;16191;49.548;8.658;2023-01-25T08:18:05;102049.00;;;1.40;100.00
29121;BME280;16191;49.548;8.658;2023-01-25T08:20:52;102047.22;;;1.37;100.00
29121;BME280;16191;49.548;8.658;2023-01-25T08:23:19;102044.66;;;1.39;100.00
29121;BME280;16191;49.548;8.658;2023-01-25T08:25:46;102041.97;;;1.34;100.00
29121;BME280;16191;49.548;8.658;2023-01-25T08:28:12;102039.72;;;1.47;100.00
29121;BME280;16191;49.548;8.658;2023-01-25T08:30:39;102038.88;;;1.46;100.00
29121;BME280;16191;49.548;8.658;2023-01-25T08:33:21;102035.53;;;1.52;100.00
29121;BME280;16191;49.548;8.658;2023-01-25T08:35:55;102030.34;;;1.49;100.00
29121;BME280;16191;49.548;8.658;2023-01-25T08:38:22;102030.28;;;1.46;100.00
29121;BME280;16191;49.548;8.658;2023-01-25T08:40:49;102034.34;;;1.37;100.00
29121;BME280;16191;49.548;8.658;2023-01-25T08:43:16;102034.66;;;1.50;100.00
29121;BME280;16191;49.548;8.658;2023-01-25T08:45:43;102028.69;;;1.52;100.00
29121;BME280;16191;49.548;8.658;2023-01-25T08:48:10;102028.78;;;1.55;100.00
29121;BME280;16191;49.548;8.658;2023-01-25T08:50:44;102024.41;;;1.51;100.00
29121;BME280;16191;49.548;8.658;2023-01-25T08:53:10;102021.06;;;1.55;100.00
29121;BME280;16191;49.548;8.658;2023-01-25T08:55:37;102013.34;;;1.55;100.00
29121;BME280;16191;49.548;8.658;2023-01-25T08:58:04;102015.19;;;1.61;100.00
29121;BME280;16191;49.548;8.658;2023-01-25T09:00:30;102020.53;;;1.34;100.00
29121;BME280;16191;49.548;8.658;2023-01-25T09:02:57;102016.59;;;1.47;100.00
29121;BME280;16191;49.548;8.658;2023-01-25T09:05:24;102017.44;;;1.47;100.00
29121;BME280;16191;49.548;8.658;2023-01-25T09:07:50;102019.31;;;1.54;100.00
29121;BME280;16191;49.548;8.658;2023-01-25T09:10:17;102015.94;;;1.57;100.00
29121;BME280;16191;49.548;8.658;2023-01-25T09:12:43;102012.50;;;1.56;100.00
29121;BME280;16191;49.548;8.658;2023-01-25T09:15:10;102014.09;;;1.50;100.00
29121;BME280;16191;49.548;8.658;2023-01-25T09:17:37;102018.41;;;1.51;100.00
29121;BME280;16191;49.548;8.658;2023-01-25T09:20:05;102007.53;;;1.62;100.00
29121;BME280;16191;49.548;8.658;2023-01-25T09:22:33;102011.56;;;1.53;100.00
29121;BME280;16191;49.548;8.658;2023-01-25T09:24:59;102004.66;;;1.50;100.00
29121;BME280;16191;49.548;8.658;2023-01-25T09:27:26;102008.13;;;1.51;100.00
29121;BME280;16191;49.548;8.658;2023-01-25T09:29:53;102011.56;;;1.53;100.00
29121;BME280;16191;49.548;8.658;2023-01-25T09:32:39;102004.91;;;1.61;100.00
29121;BME280;16191;49.548;8.658;2023-01-25T09:35:06;102010.28;;;1.70;100.00
29121;BME280;16191;49.548;8.658;2023-01-25T09:37:32;102005.84;;;1.64;100.00
29121;BME280;16191;49.548;8.658;2023-01-25T09:39:59;102006.47;;;1.54;100.00
29121;BME280;16191;49.548;8.658;2023-01-25T09:42:58;102006.69;;;1.63;100.00
29121;BME280;16191;49.548;8.658;2023-01-25T09:45:35;102006.91;;;1.73;100.00
29121;BME280;16191;49.548;8.658;2023-01-25T09:48:24;102008.53;;;1.69;100.00
29121;BME280;16191;49.548;8.658;2023-01-25T09:51:19;101996.63;;;1.73;100.00
29121;BME280;16191;49.548;8.658;2023-01-25T09:53:50;102008.66;;;1.75;100.00
29121;BME280;16191;49.548;8.658;2023-01-25T09:56:23;102004.34;;;1.74;100.00
29121;BME280;16191;49.548;8.658;2023-01-25T09:58:56;101998.44;;;1.78;100.00
29121;BME280;16191;49.548;8.658;2023-01-25T10:01:47;102001.00;;;1.78;100.00
29121;BME280;16191;49.548;8.658;2023-01-25T10:04:24;101993.34;;;1.80;100.00
29121;BME280;16191;49.548;8.658;2023-01-25T10:06:56;101984.66;;;1.76;100.00
29121;BME280;16191;49.548;8.658;2023-01-25T10:12:13;101987.16;;;1.71;100.00
29121;BME280;16191;49.548;8.658;2023-01-25T10:14:40;101980.44;;;1.78;100.00
29121;BME280;16191;49.548;8.658;2023-01-25T10:17:14;101980.38;;;1.77;100.00
29121;BME280;16191;49.548;8.658;2023-01-25T10:19:52;101985.03;;;1.55;100.00
29121;BME280;16191;49.548;8.658;2023-01-25T10:22:28;101984.38;;;1.62;100.00
29121;BME280;16191;49.548;8.658;2023-01-25T10:30:59;101981.19;;;1.74;100.00
29121;BME280;16191;49.548;8.658;2023-01-25T10:33:30;101964.75;;;1.67;100.00
29121;BME280;16191;49.548;8.658;2023-01-25T10:36:03;101970.06;;;1.75;100.00
29121;BME280;16191;49.548;8.658;2023-01-25T10:38:39;101953.13;;;1.85;100.00
29121;BME280;16191;49.548;8.658;2023-01-25T10:41:13;101942.78;;;1.83;100.00
29121;BME280;16191;49.548;8.658;2023-01-25T10:43:41;101957.19;;;1.75;100.00
29121;BME280;16191;49.548;8.658;2023-01-25T10:46:22;101943.63;;;1.82;100.00
29121;BME280;16191;49.548;8.658;2023-01-25T10:48:51;101944.56;;;1.86;100.00
29121;BME280;16191;49.548;8.658;2023-01-25T10:51:31;101931.75;;;1.87;100.00
29121;BME280;16191;49.548;8.658;2023-01-25T10:54:00;101936.13;;;1.91;100.00
29121;BME280;16191;49.548;8.658;2023-01-25T10:56:29;101924.75;;;1.82;100.00
29121;BME280;16191;49.548;8.658;2023-01-25T10:59:12;101917.84;;;1.81;100.00
29121;BME280;16191;49.548;8.658;2023-01-25T11:01:41;101921.31;;;1.81;100.00
29121;BME280;16191;49.548;8.658;2023-01-25T11:04:29;101920.69;;;1.91;100.00
29121;BME280;16191;49.548;8.658;2023-01-25T11:06:57;101909.66;;;1.98;100.00
29121;BME280;16191;49.548;8.658;2023-01-25T11:11:58;101896.72;;;1.95;100.00
29121;BME280;16191;49.548;8.658;2023-01-25T11:14:27;101895.88;;;1.96;100.00
29121;BME280;16191;49.548;8.658;2023-01-25T11:16:55;101893.41;;;2.01;100.00
29121;BME280;16191;49.548;8.658;2023-01-25T11:19:37;101883.09;;;2.01;100.00
29121;BME280;16191;49.548;8.658;2023-01-25T11:22:21;101884.47;;;1.84;100.00
29121;BME280;16191;49.548;8.658;2023-01-25T11:24:51;101879.69;;;2.02;100.00
29121;BME280;16191;49.548;8.658;2023-01-25T11:27:25;101862.59;;;2.05;100.00
29121;BME280;16191;49.548;8.658;2023-01-25T11:32:31;101865.81;;;1.95;100.00
29121;BME280;16191;49.548;8.658;2023-01-25T11:34:58;101861.75;;;2.06;100.00
29121;BME280;16191;49.548;8.658;2023-01-25T11:37:34;101857.69;;;2.16;100.00
29121;BME280;16191;49.548;8.658;2023-01-25T11:40:29;101847.16;;;2.05;100.00
29121;BME280;16191;49.548;8.658;2023-01-25T11:49:08;101836.22;;;2.17;100.00
29121;BME280;16191;49.548;8.658;2023-01-25T11:54:36;101829.44;;;2.22;100.00
29121;BME280;16191;49.548;8.658;2023-01-25T12:00:19;101808.88;;;2.24;100.00
29121;BME280;16191;49.548;8.658;2023-01-25T12:05:48;101805.31;;;2.17;100.00
29121;BME280;16191;49.548;8.658;2023-01-25T12:08:31;101803.38;;;2.05;100.00
29121;BME280;16191;49.548;8.658;2023-01-25T12:16:52;101783.22;;;2.30;100.00
29121;BME280;16191;49.548;8.658;2023-01-25T12:19:31;101787.56;;;2.32;100.00
29121;BME280;16191;49.548;8.658;2023-01-25T12:24:41;101768.47;;;2.21;100.00
29121;BME280;16191;49.548;8.658;2023-01-25T12:27:20;101761.81;;;2.32;100.00
29121;BME280;16191;49.548;8.658;2023-01-25T12:29:56;101749.78;;;2.33;100.00
29121;BME280;16191;49.548;8.658;2023-01-25T12:35:12;101734.41;;;2.36;100.00
29121;BME280;16191;49.548;8.658;2023-01-25T12:37:48;101727.59;;;2.41;100.00
29121;BME280;16191;49.548;8.658;2023-01-25T12:40:20;101721.59;;;2.42;100.00
29121;BME280;16191;49.548;8.658;2023-01-25T12:42:55;101718.19;;;2.43;100.00
29121;BME280;16191;49.548;8.658;2023-01-25T12:45:26;101711.28;;;2.42;100.00
29121;BME280;16191;49.548;8.658;2023-01-25T12:47:56;101706.13;;;2.42;100.00
29121;BME280;16191;49.548;8.658;2023-01-25T12:50:37;101705.28;;;2.41;100.00
29121;BME280;16191;49.548;8.658;2023-01-25T12:53:12;101697.56;;;2.43;100.00
29121;BME280;16191;49.548;8.658;2023-01-25T12:55:43;101694.19;;;2.46;100.00
29121;BME280;16191;49.548;8.658;2023-01-25T13:01:25;101687.25;;;2.43;100.00
29121;BME280;16191;49.548;8.658;2023-01-25T13:04:09;101681.94;;;2.31;100.00
29121;BME280;16191;49.548;8.658;2023-01-25T13:06:43;101681.25;;;2.42;100.00
29121;BME280;16191;49.548;8.658;2023-01-25T13:11:44;101670.91;;;2.41;100.00
29121;BME280;16191;49.548;8.658;2023-01-25T13:16:49;101675.88;;;2.29;100.00
29121;BME280;16191;49.548;8.658;2023-01-25T13:22:02;101680.28;;;2.34;100.00
29121;BME280;16191;49.548;8.658;2023-01-25T13:24:32;101679.31;;;2.28;100.00
29121;BME280;16191;49.548;8.658;2023-01-25T13:27:02;101670.78;;;2.32;100.00
29121;BME280;16191;49.548;8.658;2023-01-25T13:32:01;101673.38;;;2.32;100.00
29121;BME280;16191;49.548;8.658;2023-01-25T13:37:04;101663.25;;;2.46;100.00
29121;BME280;16191;49.548;8.658;2023-01-25T13:39:43;101660.69;;;2.46;100.00
29121;BME280;16191;49.548;8.658;2023-01-25T13:44:41;101647.81;;;2.46;100.00
29121;BME280;16191;49.548;8.658;2023-01-25T13:47:14;101645.25;;;2.47;100.00
29121;BME280;16191;49.548;8.658;2023-01-25T13:49:47;101643.41;;;2.37;100.00
29121;BME280;16191;49.548;8.658;2023-01-25T13:52:20;101636.66;;;2.47;100.00
29121;BME280;16191;49.548;8.658;2023-01-25T13:54:48;101636.69;;;2.50;100.00
29121;BME280;16191;49.548;8.658;2023-01-25T13:57:21;101628.91;;;2.45;100.00
29121;BME280;16191;49.548;8.658;2023-01-25T14:00:04;101622.06;;;2.47;100.00
29121;BME280;16191;49.548;8.658;2023-01-25T14:02:37;101616.09;;;2.50;100.00
29121;BME280;16191;49.548;8.658;2023-01-25T14:05:05;101601.47;;;2.49;100.00
29121;BME280;16191;49.548;8.658;2023-01-25T14:07:34;101610.06;;;2.49;100.00
29121;BME280;16191;49.548;8.658;2023-01-25T14:10:07;101598.91;;;2.49;100.00
29121;BME280;16191;49.548;8.658;2023-01-25T14:12:40;101601.50;;;2.50;100.00
29121;BME280;16191;49.548;8.658;2023-01-25T14:15:24;101598.94;;;2.52;100.00
29121;BME280;16191;49.548;8.658;2023-01-25T14:18:14;101597.91;;;2.37;100.00
29121;BME280;16191;49.548;8.658;2023-01-25T14:20:46;101597.03;;;2.40;100.00
29121;BME280;16191;49.548;8.658;2023-01-25T14:23:24;101597.97;;;2.45;100.00
29121;BME280;16191;49.548;8.658;2023-01-25T14:25:52;101597.22;;;2.51;100.00
29121;BME280;16191;49.548;8.658;2023-01-25T14:28:21;101593.81;;;2.53;100.00
29121;BME280;16191;49.548;8.658;2023-01-25T14:30:53;101586.91;;;2.51;100.00
29121;BME280;16191;49.548;8.658;2023-01-25T14:33:22;101579.16;;;2.49;100.00
29121;BME280;16191;49.548;8.658;2023-01-25T14:35:52;101576.59;;;2.51;100.00
29121;BME280;16191;49.548;8.658;2023-01-25T14:41:01;101579.16;;;2.49;100.00
29121;BME280;16191;49.548;8.658;2023-01-25T14:43:28;101575.78;;;2.53;100.00
29121;BME280;16191;49.548;8.658;2023-01-25T14:45:55;101573.97;;;2.48;100.00
29121;BME280;16191;49.548;8.658;2023-01-25T14:48:39;101564.63;;;2.54;100.00
29121;BME280;16191;49.548;8.658;2023-01-25T14:51:30;101569.66;;;2.47;100.00
29121;BME280;16191;49.548;8.658;2023-01-25T14:54:00;101561.94;;;2.47;100.00